Time;durP1;ratioP1;P1;durP2;ratioP2;P2;SDS_P1;SDS_P2;PMS_P1;PMS_P2;Temp;Humidity;BMP_temperature;BMP_pressure;BME280_temperature;BME280_humidity;BME280_pressure;Samples;Min_cycle;Max_cycle;Signal;HPM_P1;HPM_P2
2022/04/02 00:00:23;;;;;;;6.28;2.50;;;;;;;1.79;60.57;101470.53;5003388;28;20049;-66
2022/04/02 00:02:48;;;;;;;4.15;2.42;;;;;;;1.72;61.72;101473.31;5003234;28;20034;-64
2022/04/02 00:05:14;;;;;;;3.75;2.17;;;;;;;1.75;60.94;101460.97;5003787;28;20069;-63
2022/04/02 00:07:39;;;;;;;5.47;2.15;;;;;;;1.73;62.17;101473.28;5003252;28;20101;-65
2022/04/02 00:10:07;;;;;;;4.65;2.40;;;;;;;1.72;61.16;101470.69;5002318;28;20088;-63
2022/04/02 00:12:32;;;;;;;6.75;2.42;;;;;;;1.75;59.59;101463.59;4984443;28;20399;-64
2022/04/02 00:14:57;;;;;;;6.03;2.20;;;;;;;1.69;60.28;101461.09;5002358;28;20073;-64
2022/04/02 00:17:23;;;;;;;2.65;1.70;;;;;;;1.90;54.55;101456.34;4983870;28;20068;-65
2022/04/02 00:19:48;;;;;;;2.92;2.00;;;;;;;1.87;54.82;101465.19;5001972;28;20132;-64
2022/04/02 00:22:14;;;;;;;3.60;1.77;;;;;;;1.86;56.05;101470.44;5001377;28;20040;-64
2022/04/02 00:24:40;;;;;;;5.97;1.77;;;;;;;1.79;56.22;101473.19;4983783;28;20034;-66
2022/04/02 00:27:05;;;;;;;4.35;1.75;;;;;;;1.92;54.09;101472.97;5001311;28;20048;-64
2022/04/02 00:29:32;;;;;;;2.90;1.42;;;;;;;1.89;54.97;101470.41;5001521;28;20133;-64
2022/04/02 00:31:57;;;;;;;3.05;1.73;;;;;;;1.93;53.69;101479.97;5001125;28;20521;-64
2022/04/02 00:34:22;;;;;;;2.97;1.40;;;;;;;1.98;53.67;101473.72;4983119;28;20041;-64
2022/04/02 00:36:48;;;;;;;2.28;1.65;;;;;;;1.92;54.84;101470.34;5000703;28;20525;-63
2022/04/02 00:39:13;;;;;;;3.55;1.85;;;;;;;1.88;55.05;101476.56;4982943;28;20836;-64
2022/04/02 00:41:39;;;;;;;3.95;2.10;;;;;;;1.81;57.26;101476.66;4999003;28;20091;-63
2022/04/02 00:44:13;;;;;;;7.78;2.35;;;;;;;1.84;56.67;101482.75;5000685;28;20061;-64
2022/04/02 00:46:42;;;;;;;3.78;1.90;;;;;;;1.77;58.94;101477.59;4967527;28;20107;-64
2022/04/02 00:49:09;;;;;;;11.93;2.67;;;;;;;1.63;59.95;101476.97;4982882;28;20034;-64
2022/04/02 00:51:41;;;;;;;3.58;2.53;;;;;;;1.62;61.20;101472.59;5000263;28;20045;-64
2022/04/02 00:54:15;;;;;;;4.88;2.42;;;;;;;1.60;60.91;101478.75;4998541;28;20037;-64
2022/04/02 00:56:42;;;;;;;9.98;3.50;;;;;;;1.55;61.17;101481.47;5000012;28;20033;-64
2022/04/02 00:59:08;;;;;;;10.52;2.47;;;;;;;1.61;60.51;101491.00;4997858;28;20041;-64
2022/04/02 01:01:35;;;;;;;11.38;2.45;;;;;;;1.61;60.84;101491.91;4977632;28;20053;-64
2022/04/02 01:04:05;;;;;;;4.85;2.70;;;;;;;1.56;61.84;101488.47;4985510;28;20038;-62
2022/04/02 01:06:38;;;;;;;5.72;2.58;;;;;;;1.57;60.93;101487.59;4960175;28;20043;-64
2022/04/02 01:09:04;;;;;;;4.80;2.25;;;;;;;1.53;61.69;101488.50;4978521;28;20046;-64
2022/04/02 01:11:41;;;;;;;11.32;3.17;;;;;;;1.52;61.25;101489.41;4960301;28;20046;-64
2022/04/02 01:14:07;;;;;;;3.35;2.25;;;;;;;1.51;62.05;101490.31;4959573;28;20125;-64
2022/04/02 01:16:33;;;;;;;4.47;2.33;;;;;;;1.57;61.22;101499.84;4959209;28;20045;-64
2022/04/02 01:19:04;;;;;;;4.43;2.13;;;;;;;1.58;60.46;101497.19;4975651;28;20053;-64
2022/04/02 01:21:31;;;;;;;8.60;2.70;;;;;;;1.58;60.50;101491.06;4986491;28;20128;-64
2022/04/02 01:24:01;;;;;;;3.42;2.25;;;;;;;1.53;60.68;101493.78;4978724;28;20080;-64
2022/04/02 01:26:28;;;;;;;7.68;2.28;;;;;;;1.46;62.50;101498.25;4994894;28;20517;-64
2022/04/02 01:29:04;;;;;;;5.72;2.47;;;;;;;1.57;60.13;101491.97;4994478;28;20675;-64
2022/04/02 01:31:45;;;;;;;4.10;1.98;;;;;;;1.39;63.07;101495.75;4995466;28;20129;-64
2022/04/02 01:34:14;;;;;;;5.50;2.22;;;;;;;1.41;62.24;101497.47;4979187;28;20044;-64
2022/04/02 01:36:41;;;;;;;3.83;2.70;;;;;;;1.46;61.46;101503.53;4995014;28;20038;-64
2022/04/02 01:39:17;;;;;;;4.60;2.13;;;;;;;1.42;62.04;101498.34;4981525;28;20057;-65
2022/04/02 01:41:45;;;;;;;6.60;2.80;;;;;;;1.38;62.72;101496.63;4981625;28;20243;-65
2022/04/02 01:44:13;;;;;;;4.10;2.22;;;;;;;1.47;60.53;101502.63;4965490;28;20583;-64
2022/04/02 01:46:38;;;;;;;5.22;2.15;;;;;;;1.39;61.73;101507.09;4963880;28;20038;-64
2022/04/02 01:49:05;;;;;;;4.00;2.53;;;;;;;1.40;61.80;101507.97;4963973;28;20035;-64
2022/04/02 01:51:30;;;;;;;5.55;2.40;;;;;;;1.42;61.20;101517.59;4963592;28;20034;-64
2022/04/02 01:53:56;;;;;;;3.35;2.35;;;;;;;1.39;62.05;101522.88;4983498;28;20035;-64
2022/04/02 01:56:21;;;;;;;6.72;3.10;;;;;;;1.43;61.30;101513.19;4983745;28;20562;-66
2022/04/02 01:58:52;;;;;;;8.32;2.42;;;;;;;1.55;60.04;101515.63;4950535;28;20053;-64
2022/04/02 02:01:21;;;;;;;4.57;2.35;;;;;;;1.43;61.30;101524.56;4981058;28;20030;-64
2022/04/02 02:03:47;;;;;;;4.97;2.95;;;;;;;1.38;62.72;101525.53;4964985;28;20119;-64
2022/04/02 02:06:12;;;;;;;4.97;2.58;;;;;;;1.29;63.32;101516.88;4965382;28;20547;-63
2022/04/02 02:08:42;;;;;;;7.53;2.97;;;;;;;1.34;61.57;101523.84;4966051;28;20050;-64
2022/04/02 02:11:31;;;;;;;3.85;2.65;;;;;;;1.40;60.87;101529.84;4972023;28;20057;-64
2022/04/02 02:14:15;;;;;;;4.47;2.28;;;;;;;1.44;60.83;101528.06;4983768;28;20069;-64
2022/04/02 02:16:45;;;;;;;5.13;2.50;;;;;;;1.44;59.89;101531.56;4965632;28;20057;-64
2022/04/02 02:19:11;;;;;;;5.88;2.33;;;;;;;1.37;61.05;101529.94;4982576;28;20165;-64
2022/04/02 02:21:37;;;;;;;5.40;2.80;;;;;;;1.28;62.85;101528.28;4978888;28;20489;-64
2022/04/02 02:24:04;;;;;;;3.92;2.28;;;;;;;1.37;61.14;101523.81;5004046;28;20689;-64
2022/04/02 02:26:30;;;;;;;3.40;2.53;;;;;;;1.43;60.37;101529.84;4986433;28;20434;-63
2022/04/02 02:28:55;;;;;;;5.40;2.55;;;;;;;1.42;60.12;101530.72;5004919;28;20170;-64
2022/04/02 02:31:28;;;;;;;6.20;2.60;;;;;;;1.32;61.45;101542.25;4986288;28;20153;-63
2022/04/02 02:36:44;;;;;;;7.25;3.05;;;;;;;1.32;61.14;101546.66;4985648;28;20510;-63
2022/04/02 02:39:11;;;;;;;5.10;2.30;;;;;;;1.32;61.35;101538.75;5001460;28;20117;-64
2022/04/02 02:41:44;;;;;;;6.85;2.92;;;;;;;1.26;61.63;101539.72;4985193;28;20477;-64
2022/04/02 02:44:21;;;;;;;5.07;2.35;;;;;;;1.32;60.96;101537.00;4985178;28;20111;-64
2022/04/02 02:46:52;;;;;;;6.90;2.35;;;;;;;1.23;62.35;101539.75;4985663;28;20112;-63
2022/04/02 02:49:24;;;;;;;4.95;2.35;;;;;;;1.19;62.45;101540.69;5000639;28;20455;-64
2022/04/02 02:51:52;;;;;;;5.25;2.90;;;;;;;1.17;62.83;101539.84;4984884;28;20037;-63
2022/04/02 02:54:22;;;;;;;5.03;2.75;;;;;;;1.20;61.99;101540.66;4984617;28;20042;-64
2022/04/02 02:56:48;;;;;;;6.35;2.50;;;;;;;1.20;61.64;101540.66;5001517;28;20115;-63
2022/04/02 02:59:13;;;;;;;4.85;2.17;;;;;;;1.14;62.71;101547.75;4983468;28;20259;-63
2022/04/02 03:01:39;;;;;;;6.18;2.60;;;;;;;1.06;64.16;101542.63;4982835;28;20045;-64
2022/04/02 03:04:05;;;;;;;4.43;2.20;;;;;;;1.02;64.20;101541.78;4983270;28;20041;-64
2022/04/02 03:06:33;;;;;;;6.40;2.40;;;;;;;1.10;63.12;101546.91;4983844;28;20159;-63
2022/04/02 03:08:59;;;;;;;7.55;2.67;;;;;;;0.96;64.62;101557.63;5002631;28;20644;-64
2022/04/02 03:11:24;;;;;;;5.30;2.72;;;;;;;0.96;64.92;101555.00;5002831;28;20092;-64
2022/04/02 03:13:51;;;;;;;4.35;2.45;;;;;;;0.93;64.99;101557.63;4984463;28;20042;-63
2022/04/02 03:16:16;;;;;;;7.05;2.95;;;;;;;0.93;64.60;101549.75;4984965;28;20097;-63
2022/04/02 03:18:56;;;;;;;7.05;3.30;;;;;;;0.81;66.12;101555.16;4985448;28;20662;-63
2022/04/02 03:21:23;;;;;;;6.80;3.05;;;;;;;0.75;66.32;101549.97;4990845;28;20097;-64
2022/04/02 03:23:48;;;;;;;4.80;3.00;;;;;;;0.83;65.56;101550.75;4965142;28;20443;-64
2022/04/02 03:26:18;;;;;;;4.43;2.47;;;;;;;0.75;66.41;101555.22;4965384;28;20150;-63
2022/04/02 03:28:43;;;;;;;8.60;2.80;;;;;;;0.72;66.63;101557.91;4965198;28;20046;-64
2022/04/02 03:31:10;;;;;;;16.30;2.90;;;;;;;0.69;67.20;101564.03;4981198;28;20459;-63
2022/04/02 03:33:38;;;;;;;7.78;3.05;;;;;;;0.57;68.94;101558.06;4982825;28;20045;-63
2022/04/02 03:36:05;;;;;;;4.50;2.83;;;;;;;0.67;67.11;101567.56;4983296;28;20065;-64
2022/04/02 03:38:31;;;;;;;4.45;2.90;;;;;;;0.57;67.83;101560.69;4965119;28;20678;-63
2022/04/02 03:40:59;;;;;;;6.38;3.30;;;;;;;0.55;68.08;101568.56;4964913;28;20074;-64
2022/04/02 03:43:25;;;;;;;6.43;2.92;;;;;;;0.50;68.45;101562.50;4982730;28;20556;-64
2022/04/02 03:45:50;;;;;;;5.78;3.20;;;;;;;0.54;68.12;101572.06;4982311;28;20124;-64
2022/04/02 03:48:16;;;;;;;4.68;3.08;;;;;;;0.66;67.14;101568.47;4997591;28;20045;-62
2022/04/02 03:50:44;;;;;;;4.00;2.55;;;;;;;0.57;67.64;101564.19;4981282;28;20046;-63
2022/04/02 03:53:16;;;;;;;4.88;2.60;;;;;;;0.47;68.24;101565.16;4997539;28;20038;-64
2022/04/02 03:55:53;;;;;;;5.03;2.90;;;;;;;0.48;68.15;101566.91;4997536;28;20048;-64
2022/04/02 03:58:31;;;;;;;7.85;3.03;;;;;;;0.51;68.43;101569.50;4997501;28;20144;-64
2022/04/02 04:00:57;;;;;;;8.57;3.20;;;;;;;0.49;68.19;101560.75;4999608;28;20030;-63
2022/04/02 04:03:23;;;;;;;11.10;3.15;;;;;;;0.49;68.16;101573.88;4984514;28;20151;-63
2022/04/02 04:05:52;;;;;;;7.90;3.15;;;;;;;0.50;68.00;101575.59;4984192;28;20095;-64
2022/04/02 04:08:19;;;;;;;7.75;2.80;;;;;;;0.50;67.56;101579.13;5000615;28;20041;-63
2022/04/02 04:10:45;;;;;;;4.78;2.67;;;;;;;0.60;66.78;101574.63;5000879;28;20098;-63
2022/04/02 04:13:12;;;;;;;5.07;3.00;;;;;;;0.61;67.09;101584.25;4984071;28;20450;-63
2022/04/02 04:15:40;;;;;;;5.57;2.40;;;;;;;0.54;67.89;101581.69;5001368;28;20057;-64
2022/04/02 04:18:07;;;;;;;8.20;3.50;;;;;;;0.58;66.93;101589.53;5000143;28;20069;-63
2022/04/02 04:20:34;;;;;;;5.47;2.92;;;;;;;0.61;67.71;101586.03;4996921;28;21937;-63
2022/04/02 04:23:01;;;;;;;9.05;3.50;;;;;;;0.56;68.17;101578.19;4964339;28;20552;-64
2022/04/02 04:25:28;;;;;;;4.50;2.75;;;;;;;0.57;67.83;101582.56;4964402;28;20038;-64
2022/04/02 04:27:54;;;;;;;11.95;3.35;;;;;;;0.53;68.39;101596.59;4982540;28;20615;-64
2022/04/02 04:30:20;;;;;;;7.07;2.60;;;;;;;0.55;68.39;101601.81;4996257;28;20054;-63
2022/04/02 04:32:46;;;;;;;6.93;2.83;;;;;;;0.56;68.30;101595.69;4981096;28;20045;-64
2022/04/02 04:35:12;;;;;;;7.88;2.95;;;;;;;0.71;66.94;101601.66;4980990;28;20048;-64
2022/04/02 04:37:37;;;;;;;6.28;2.55;;;;;;;0.67;67.18;101594.69;4979119;28;20038;-63
2022/04/02 04:40:11;;;;;;;5.43;2.90;;;;;;;0.65;67.68;101603.44;4995027;28;20136;-64
2022/04/02 04:42:39;;;;;;;8.52;3.47;;;;;;;0.66;67.20;101610.47;4963608;28;20053;-64
2022/04/02 04:45:06;;;;;;;8.65;3.20;;;;;;;0.65;67.81;101604.34;4992067;28;20137;-64
2022/04/02 04:47:32;;;;;;;6.25;3.20;;;;;;;0.64;68.04;101613.06;4959988;28;20049;-64
2022/04/02 04:49:58;;;;;;;5.82;3.35;;;;;;;0.60;68.12;101610.50;4960367;28;20038;-64
2022/04/02 04:52:24;;;;;;;5.70;2.90;;;;;;;0.63;68.11;101613.09;4992098;28;20034;-63
2022/04/02 04:54:50;;;;;;;5.13;2.78;;;;;;;0.65;67.54;101609.59;4960813;28;20487;-63
2022/04/02 04:57:18;;;;;;;7.32;3.15;;;;;;;0.67;66.84;101622.69;4960932;28;20105;-63
2022/04/02 04:59:58;;;;;;;5.53;3.50;;;;;;;0.67;66.89;101620.94;4960864;28;20046;-64
2022/04/02 05:02:25;;;;;;;7.63;3.00;;;;;;;0.61;67.87;101614.88;4960957;28;20038;-64
2022/04/02 05:04:52;;;;;;;8.38;2.53;;;;;;;0.64;66.67;101622.72;4961036;28;20110;-64
2022/04/02 05:07:18;;;;;;;4.22;2.63;;;;;;;0.62;67.40;101627.13;4992993;28;20035;-64
2022/04/02 05:09:46;;;;;;;7.15;3.08;;;;;;;0.64;66.92;101623.56;4977017;28;20116;-63
2022/04/02 05:12:12;;;;;;;5.63;2.95;;;;;;;0.68;66.41;101630.53;4964066;28;20041;-64
2022/04/02 05:14:42;;;;;;;5.43;2.58;;;;;;;0.75;65.96;101629.59;4964164;28;20074;-63
2022/04/02 05:17:08;;;;;;;5.10;2.70;;;;;;;0.66;67.08;101637.56;4963841;28;20419;-63
2022/04/02 05:19:36;;;;;;;5.07;2.80;;;;;;;0.63;67.35;101636.72;4964046;28;20979;-63
2022/04/02 05:22:03;;;;;;;9.20;2.95;;;;;;;0.69;66.29;101642.78;4965263;28;20794;-64
2022/04/02 05:24:33;;;;;;;5.65;2.92;;;;;;;0.68;67.10;101642.78;4962582;28;20141;-63
2022/04/02 05:26:59;;;;;;;8.77;3.35;;;;;;;0.66;67.28;101647.19;4961906;28;20062;-63
2022/04/02 05:29:25;;;;;;;5.05;2.70;;;;;;;0.57;68.44;101645.53;4960995;28;20033;-64
2022/04/02 05:31:50;;;;;;;5.15;3.00;;;;;;;0.49;69.12;101653.44;4976308;28;20026;-63
2022/04/02 05:34:15;;;;;;;6.60;3.30;;;;;;;0.48;69.41;101656.09;4961902;28;20575;-63
2022/04/02 05:36:43;;;;;;;7.15;3.50;;;;;;;0.45;69.88;101651.75;4961995;28;20125;-63
2022/04/02 05:39:08;;;;;;;8.00;3.08;;;;;;;0.44;69.79;101662.25;4960459;28;20038;-64
2022/04/02 05:41:37;;;;;;;5.13;2.97;;;;;;;0.45;70.07;101662.25;4962940;28;20854;-65
2022/04/02 05:44:07;;;;;;;4.65;3.42;;;;;;;0.44;69.90;101663.13;4963675;28;20054;-64
2022/04/02 05:46:35;;;;;;;6.28;3.55;;;;;;;0.46;69.80;101666.63;4964695;28;20415;-63
2022/04/02 05:49:01;;;;;;;6.35;3.60;;;;;;;0.45;71.29;101666.59;4979429;28;20042;-63
2022/04/02 05:51:26;;;;;;;6.70;3.60;;;;;;;0.50;69.75;101676.22;4979113;28;20049;-63
2022/04/02 05:53:52;;;;;;;5.85;3.47;;;;;;;0.51;70.23;101674.44;4963167;28;20125;-63
2022/04/02 05:56:18;;;;;;;9.50;3.25;;;;;;;0.65;69.45;101679.56;4964787;28;20082;-64
2022/04/02 05:58:44;;;;;;;6.50;3.25;;;;;;;0.63;69.55;101679.56;4964327;28;20721;-64
2022/04/02 06:01:10;;;;;;;9.88;3.38;;;;;;;0.58;70.24;101683.13;4979194;28;20129;-64
2022/04/02 06:03:36;;;;;;;7.10;3.60;;;;;;;0.60;69.78;101681.34;4964529;28;20046;-64
2022/04/02 06:06:02;;;;;;;8.25;3.17;;;;;;;0.58;70.92;101685.75;4964613;28;20114;-63
2022/04/02 06:08:27;;;;;;;6.93;3.63;;;;;;;0.66;69.66;101690.06;4964880;28;20130;-64
2022/04/02 06:10:53;;;;;;;9.45;2.90;;;;;;;0.70;70.14;101690.88;4964907;28;20053;-64
2022/04/02 06:13:19;;;;;;;6.28;3.35;;;;;;;0.74;69.25;101698.72;4963073;28;20612;-64
2022/04/02 06:15:44;;;;;;;12.05;3.88;;;;;;;0.73;71.14;101704.00;4964855;28;20611;-64
2022/04/02 06:18:11;;;;;;;6.45;3.33;;;;;;;0.86;70.63;101704.75;4964355;28;20035;-63
2022/04/02 06:20:37;;;;;;;6.53;3.72;;;;;;;0.83;70.31;101708.28;4966952;28;20049;-63
2022/04/02 06:23:02;;;;;;;8.70;3.38;;;;;;;0.86;70.58;101705.63;4982767;28;20042;-63
2022/04/02 06:25:28;;;;;;;6.72;3.30;;;;;;;0.83;70.57;101710.03;4982398;28;20038;-63
2022/04/02 06:27:54;;;;;;;6.32;4.13;;;;;;;0.88;70.23;101714.34;4984359;28;20034;-64
2022/04/02 06:30:21;;;;;;;5.65;3.47;;;;;;;0.98;70.56;101712.50;4984213;28;20039;-65
2022/04/02 06:32:46;;;;;;;11.35;3.88;;;;;;;0.98;70.39;101718.63;4984313;28;20049;-63
2022/04/02 06:35:12;;;;;;;9.10;3.60;;;;;;;1.06;70.19;101726.44;4998737;28;20038;-63
2022/04/02 06:37:40;;;;;;;7.82;3.35;;;;;;;1.04;69.79;101728.19;4981639;28;20045;-63
2022/04/02 06:40:09;;;;;;;11.95;4.18;;;;;;;1.01;70.58;101730.88;4983450;28;20442;-64
2022/04/02 06:42:35;;;;;;;8.50;4.10;;;;;;;1.03;70.88;101729.09;4984102;28;20574;-64
2022/04/02 06:45:03;;;;;;;9.05;3.72;;;;;;;0.97;70.24;101737.03;4991216;28;20050;-64
2022/04/02 06:47:29;;;;;;;7.70;3.33;;;;;;;1.11;70.40;101731.66;4984000;28;20096;-64
2022/04/02 06:49:56;;;;;;;7.30;4.10;;;;;;;1.05;71.86;101737.81;4984182;28;20044;-63
2022/04/02 06:52:22;;;;;;;6.93;3.58;;;;;;;1.06;71.74;101736.94;4983620;28;20043;-63
2022/04/02 06:54:48;;;;;;;14.32;4.68;;;;;;;1.13;70.03;101743.88;4984305;28;20053;-63
2022/04/02 06:57:21;;;;;;;9.05;4.00;;;;;;;1.33;71.18;101746.28;4998803;28;20046;-64
2022/04/02 06:59:47;;;;;;;7.05;4.00;;;;;;;1.32;70.23;101749.81;4984267;28;20407;-63
2022/04/02 07:02:13;;;;;;;6.07;3.63;;;;;;;1.44;69.15;101754.06;4984015;28;20053;-64
2022/04/02 07:04:38;;;;;;;8.30;3.75;;;;;;;1.63;68.65;101749.47;4966341;28;20129;-64
2022/04/02 07:07:04;;;;;;;7.43;3.20;;;;;;;1.69;68.32;101752.00;4982134;28;20217;-66
2022/04/02 07:09:29;;;;;;;8.35;3.90;;;;;;;1.85;68.62;101757.94;4981952;28;20054;-64
2022/04/02 07:11:55;;;;;;;8.43;3.80;;;;;;;1.94;67.17;101758.69;4983444;28;20053;-63
2022/04/02 07:14:21;;;;;;;6.60;3.63;;;;;;;2.14;67.71;101761.06;4997891;28;20061;-63
2022/04/02 07:16:47;;;;;;;6.50;3.50;;;;;;;2.43;68.15;101763.28;4982547;28;20351;-63
2022/04/02 07:19:14;;;;;;;8.43;4.75;;;;;;;2.38;66.90;101757.22;4982150;28;20049;-63
2022/04/02 07:21:43;;;;;;;8.80;4.07;;;;;;;2.37;66.83;101758.13;4979907;28;20442;-63
2022/04/02 07:24:11;;;;;;;11.82;3.58;;;;;;;2.59;68.00;101767.41;4981575;28;20122;-64
2022/04/02 07:26:38;;;;;;;6.20;3.40;;;;;;;2.44;67.56;101764.16;4980886;28;20038;-63
2022/04/02 07:29:03;;;;;;;8.63;4.22;;;;;;;2.65;67.40;101770.84;4981801;28;20427;-63
2022/04/02 07:31:29;;;;;;;8.95;4.07;;;;;;;2.82;65.84;101769.69;4980253;28;20050;-64
2022/04/02 07:33:54;;;;;;;10.20;3.33;;;;;;;2.63;67.46;101777.91;4982661;28;20074;-64
2022/04/02 07:36:45;;;;;;;8.57;4.45;;;;;;;2.67;66.43;101776.97;4998490;28;20080;-63
2022/04/02 07:39:32;;;;;;;7.88;4.55;;;;;;;2.73;66.97;101784.78;4998314;28;20112;-64
2022/04/02 07:42:17;;;;;;;7.88;3.83;;;;;;;2.84;66.29;101786.34;4996802;28;20038;-63
2022/04/02 07:44:52;;;;;;;7.85;4.00;;;;;;;2.94;67.29;101784.41;4992683;28;20053;-64
2022/04/02 07:47:23;;;;;;;12.52;4.72;;;;;;;3.02;66.36;101789.56;5000588;28;20069;-63
2022/04/02 07:49:54;;;;;;;7.45;3.55;;;;;;;3.18;65.58;101790.19;5000095;28;20348;-63
2022/04/02 07:52:23;;;;;;;8.38;3.78;;;;;;;3.13;66.65;101794.66;4992909;28;20057;-63
2022/04/02 07:54:58;;;;;;;5.25;3.00;;;;;;;3.09;66.04;101799.97;4985376;28;20141;-65
2022/04/02 07:57:27;;;;;;;7.32;3.88;;;;;;;2.84;67.33;101801.28;5001746;28;20042;-64
2022/04/02 08:00:03;;;;;;;8.15;3.85;;;;;;;2.80;67.39;101812.75;4983623;28;20061;-63
2022/04/02 08:02:45;;;;;;;7.55;3.42;;;;;;;2.99;67.49;101808.06;5000278;28;20048;-64
2022/04/02 08:05:17;;;;;;;9.13;3.95;;;;;;;2.79;69.16;101803.97;4989806;28;20065;-64
2022/04/02 08:07:52;;;;;;;5.53;3.90;;;;;;;3.02;65.98;101805.38;5017416;28;20458;-63
2022/04/02 08:10:19;;;;;;;9.52;4.75;;;;;;;3.63;66.39;101807.78;5006509;28;20179;-64
2022/04/02 08:12:48;;;;;;;7.25;4.15;;;;;;;3.96;63.66;101808.00;4990809;28;20119;-64
2022/04/02 08:15:16;;;;;;;11.30;4.05;;;;;;;4.22;65.45;101812.75;5014790;28;20065;-63
2022/04/02 08:17:44;;;;;;;9.88;3.78;;;;;;;3.97;63.87;101803.63;4998753;28;20038;-66
2022/04/02 08:20:12;;;;;;;7.72;4.13;;;;;;;3.87;63.64;101817.00;4992530;28;20281;-63
2022/04/02 08:22:38;;;;;;;9.60;4.25;;;;;;;3.84;64.47;101814.41;5001756;28;20038;-64
2022/04/02 08:25:04;;;;;;;10.20;4.30;;;;;;;3.74;62.72;101820.75;4999152;28;20044;-64
2022/04/02 08:27:37;;;;;;;7.90;4.38;;;;;;;3.40;62.77;101811.75;5000402;28;20045;-64
2022/04/02 08:30:06;;;;;;;6.72;4.05;;;;;;;3.66;63.13;101824.44;4998946;28;20479;-67
2022/04/02 08:33:09;;;;;;;7.45;4.20;;;;;;;3.61;61.63;101822.78;4982757;28;20041;-64
2022/04/02 08:36:23;;;;;;;12.23;4.63;;;;;;;4.05;63.88;101822.78;5000476;28;20123;-64
2022/04/02 08:39:08;;;;;;;12.52;5.15;;;;;;;3.82;63.36;101824.13;4997801;28;20112;-64
2022/04/02 08:42:11;;;;;;;8.40;4.25;;;;;;;3.76;62.62;101832.13;5000612;28;20053;-63
2022/04/02 08:44:36;;;;;;;;;;;;;;;4.02;65.31;101829.00;4979482;28;20712;-65
2022/04/02 08:47:29;;;;;;;7.13;4.38;;;;;;;3.94;61.93;101827.41;4985072;28;20038;-64
2022/04/02 08:50:10;;;;;;;10.98;4.47;;;;;;;3.46;63.61;101830.94;4995903;28;20061;-63
2022/04/02 08:52:45;;;;;;;9.50;4.38;;;;;;;3.48;63.89;101823.03;4998146;28;20046;-63
2022/04/02 08:55:19;;;;;;;12.10;4.10;;;;;;;3.41;64.06;101819.63;4997989;28;20046;-64
2022/04/02 08:57:48;;;;;;;8.40;4.05;;;;;;;3.80;63.26;101825.91;4998527;28;20601;-64
2022/04/02 09:00:15;;;;;;;10.40;4.97;;;;;;;3.79;63.93;101825.94;4999268;28;20193;-64
2022/04/02 09:02:53;;;;;;;10.55;5.40;;;;;;;3.38;64.26;101831.09;4981135;28;20132;-63
2022/04/02 09:05:34;;;;;;;10.43;4.80;;;;;;;3.80;65.27;101832.97;4999405;28;20046;-63
2022/04/02 09:08:08;;;;;;;8.35;4.70;;;;;;;3.81;64.20;101834.69;4998586;28;20501;-63
2022/04/02 09:11:10;;;;;;;13.15;5.03;;;;;;;4.02;63.41;101836.94;4999342;28;20045;-63
2022/04/02 09:14:08;;;;;;;10.15;4.80;;;;;;;4.53;62.87;101839.38;5000061;28;20052;-63
2022/04/02 09:17:19;;;;;;;12.82;5.07;;;;;;;4.44;63.73;101831.63;4998954;28;20248;-63
2022/04/02 09:20:04;;;;;;;10.07;5.03;;;;;;;4.24;61.45;101847.03;4899346;29;20120;-63
2022/04/02 09:22:40;;;;;;;7.68;4.43;;;;;;;4.27;62.51;101844.34;4900091;29;20044;-63
2022/04/02 09:25:35;;;;;;;8.88;4.18;;;;;;;4.19;61.40;101847.13;4968170;28;20139;-63
2022/04/02 09:28:09;;;;;;;7.30;4.35;;;;;;;4.31;61.31;101849.50;5000129;28;20095;-63
2022/04/02 09:31:13;;;;;;;7.78;4.10;;;;;;;4.12;62.15;101848.19;5000084;28;20038;-63
2022/04/02 09:34:01;;;;;;;9.88;4.82;;;;;;;4.39;61.53;101844.94;5000086;28;20521;-63
2022/04/02 09:36:59;;;;;;;8.38;4.80;;;;;;;3.95;61.64;101842.34;4999658;28;20121;-63
2022/04/02 09:39:51;;;;;;;10.18;4.10;;;;;;;4.14;59.62;101841.94;4999402;28;20133;-63
2022/04/02 09:42:38;;;;;;;9.38;4.60;;;;;;;4.05;59.99;101850.03;4999770;28;20038;-63
2022/04/02 09:45:08;;;;;;;8.57;3.72;;;;;;;4.12;61.43;101850.81;4983775;28;20054;-63
2022/04/02 09:47:52;;;;;;;5.82;3.97;;;;;;;4.19;58.88;101844.50;4981379;28;20681;-63
2022/04/02 09:50:23;;;;;;;7.80;3.72;;;;;;;4.36;56.95;101850.28;4999320;28;20501;-64
2022/04/02 09:53:10;;;;;;;7.95;3.78;;;;;;;4.86;57.47;101852.69;4999486;28;20073;-63
2022/04/02 09:55:50;;;;;;;6.38;3.95;;;;;;;4.80;54.45;101852.84;4998740;28;20121;-63
2022/04/02 09:58:19;;;;;;;7.63;3.67;;;;;;;5.53;53.14;101850.16;4981250;28;20041;-63
2022/04/02 10:00:50;;;;;;;8.63;3.75;;;;;;;5.81;53.53;101845.84;5001725;28;20129;-63
2022/04/02 10:03:45;;;;;;;7.22;3.38;;;;;;;4.90;52.60;101851.72;4979761;28;20093;-63
2022/04/02 10:06:25;;;;;;;6.07;3.45;;;;;;;4.54;56.44;101853.44;4999297;28;20060;-63
2022/04/02 10:09:04;;;;;;;8.30;4.15;;;;;;;4.71;58.69;101847.75;5001547;28;20087;-64
2022/04/02 10:11:30;;;;;;;7.78;3.95;;;;;;;4.63;56.97;101856.75;5001818;28;20045;-63
2022/04/02 10:14:01;;;;;;;8.68;2.92;;;;;;;4.94;52.40;101858.69;4962734;28;20057;-64
2022/04/02 10:16:29;;;;;;;4.65;2.63;;;;;;;4.71;52.18;101845.13;5002248;28;20132;-64
2022/04/02 10:19:00;;;;;;;7.40;3.13;;;;;;;4.79;49.24;101848.47;4992689;28;20057;-63
2022/04/02 10:21:28;;;;;;;6.72;3.00;;;;;;;5.08;49.02;101847.78;5002232;28;20046;-63
2022/04/02 10:24:05;;;;;;;6.72;3.47;;;;;;;4.47;50.22;101842.16;5002297;28;20121;-63
2022/04/02 10:26:37;;;;;;;6.57;2.88;;;;;;;4.73;51.17;101835.41;5002438;28;20056;-63
2022/04/02 10:29:10;;;;;;;6.70;3.25;;;;;;;4.91;53.27;101840.25;5000242;28;20046;-64
2022/04/02 10:31:38;;;;;;;9.50;2.80;;;;;;;4.77;52.76;101850.25;4983773;28;20850;-63
2022/04/02 10:34:40;;;;;;;4.70;2.92;;;;;;;4.76;49.51;101857.31;5002163;28;20548;-64
2022/04/02 10:37:13;;;;;;;5.70;2.17;;;;;;;5.03;49.59;101852.31;5001006;28;20054;-64
2022/04/02 10:40:04;;;;;;;4.53;2.42;;;;;;;5.37;49.62;101847.94;5001972;28;20128;-64
2022/04/02 10:42:34;;;;;;;3.15;2.10;;;;;;;5.36;47.20;101829.44;5001052;28;20065;-63
2022/04/02 10:45:07;;;;;;;3.95;2.30;;;;;;;4.79;48.61;101845.81;5002370;28;20058;-63
2022/04/02 10:47:41;;;;;;;6.70;2.50;;;;;;;4.66;50.90;101845.22;4985335;28;20046;-64
2022/04/02 10:50:08;;;;;;;5.30;3.08;;;;;;;4.62;51.88;101848.88;5002036;28;20053;-63
2022/04/02 10:52:34;;;;;;;4.18;2.28;;;;;;;4.49;50.56;101850.03;4984104;28;20403;-63
2022/04/02 10:55:00;;;;;;;5.80;2.90;;;;;;;4.62;51.39;101840.94;5000597;28;20077;-63
2022/04/02 10:57:28;;;;;;;4.32;2.75;;;;;;;4.59;50.44;101854.19;4983859;28;20049;-63
2022/04/02 11:00:00;;;;;;;4.50;2.70;;;;;;;4.84;52.40;101839.53;4991734;28;20034;-64
2022/04/02 11:02:36;;;;;;;6.22;3.15;;;;;;;4.68;50.93;101859.28;4979336;28;20086;-63
2022/04/02 11:05:06;;;;;;;6.47;3.00;;;;;;;4.82;50.33;101844.00;4980685;28;20129;-64
2022/04/02 11:07:37;;;;;;;5.93;3.08;;;;;;;5.51;51.88;101838.75;4980994;28;20038;-64
2022/04/02 11:10:04;;;;;;;4.18;2.85;;;;;;;5.82;49.71;101844.94;4962493;28;20133;-63
2022/04/02 11:12:33;;;;;;;4.03;2.42;;;;;;;5.58;47.58;101838.56;4982024;28;20069;-63
2022/04/02 11:15:23;;;;;;;3.03;2.38;;;;;;;5.11;46.59;101845.03;4991091;28;20251;-63
2022/04/02 11:17:53;;;;;;;4.82;2.90;;;;;;;4.98;48.13;101843.63;5000865;28;20041;-64
2022/04/02 11:20:38;;;;;;;3.33;2.30;;;;;;;5.33;49.20;101851.56;4977807;28;20057;-63
2022/04/02 11:23:13;;;;;;;5.03;2.80;;;;;;;5.35;50.41;101857.66;5000548;28;20092;-63
2022/04/02 11:25:44;;;;;;;4.13;2.40;;;;;;;5.09;50.10;101845.09;4999387;28;20080;-64
2022/04/02 11:28:18;;;;;;;5.25;2.80;;;;;;;5.03;49.54;101847.03;5000807;28;20038;-65
2022/04/02 11:31:01;;;;;;;5.57;2.53;;;;;;;4.87;49.48;101850.03;4982182;28;20456;-64
2022/04/02 11:33:27;;;;;;;6.20;3.40;;;;;;;5.34;48.28;101852.41;4981707;28;20379;-64
2022/04/02 11:36:06;;;;;;;4.10;2.75;;;;;;;6.32;47.23;101842.66;4997436;28;20048;-64
2022/04/02 11:38:49;;;;;;;6.28;2.72;;;;;;;6.88;46.71;101842.72;5000759;28;20922;-63
2022/04/02 11:41:21;;;;;;;8.32;2.60;;;;;;;6.03;44.50;101834.72;4982978;28;20045;-64
2022/04/02 11:43:51;;;;;;;5.60;3.22;;;;;;;6.00;46.09;101853.34;4999781;28;20479;-63
2022/04/02 11:46:18;;;;;;;3.63;2.03;;;;;;;5.43;45.20;101855.69;5001196;28;20757;-63
2022/04/02 11:48:54;;;;;;;3.38;2.50;;;;;;;5.40;47.26;101850.47;4983452;28;20561;-65
2022/04/02 11:51:24;;;;;;;3.25;2.30;;;;;;;5.25;46.83;101848.22;5001583;28;20132;-64